Time;durP1;ratioP1;P1;durP2;ratioP2;P2;SDS_P1;SDS_P2;PMS_P1;PMS_P2;Temp;Humidity;BMP_temperature;BMP_pressure;BME280_temperature;BME280_humidity;BME280_pressure;Samples;Min_cycle;Max_cycle;Signal;HPM_P1;HPM_P2
2020/12/06 00:02:07;;;;;;;106.20;48.42;;;;;;;5.94;59.81;100241.22;5040417;28;20025;-87
2020/12/06 00:04:32;;;;;;;32.92;16.10;;;;;;;6.15;59.14;100240.44;5038931;28;20474;-87
2020/12/06 00:06:58;;;;;;;14.15;8.52;;;;;;;5.23;61.07;100230.41;5039693;28;20026;-87
2020/12/06 00:09:24;;;;;;;14.77;8.27;;;;;;;5.58;61.11;100233.63;5039201;28;20025;-86
2020/12/06 00:11:50;;;;;;;17.40;10.40;;;;;;;5.86;60.00;100237.03;5038910;28;20021;-86
2020/12/06 00:14:15;;;;;;;32.20;12.50;;;;;;;6.29;58.40;100239.00;5039081;28;20086;-89
2020/12/06 00:16:41;;;;;;;75.65;25.88;;;;;;;6.48;57.73;100242.72;5039708;28;20029;-86
2020/12/06 00:19:06;;;;;;;69.65;23.65;;;;;;;6.45;57.55;100241.97;5038530;28;20030;-86
2020/12/06 00:21:31;;;;;;;39.47;16.92;;;;;;;6.43;57.23;100246.50;5039627;28;20029;-85
2020/12/06 00:23:57;;;;;;;13.57;8.25;;;;;;;5.87;58.96;100243.25;5038119;28;20033;-88
2020/12/06 00:26:26;;;;;;;11.32;7.63;;;;;;;5.73;59.80;100246.47;5038220;28;20021;-86
2020/12/06 00:28:53;;;;;;;13.52;7.45;;;;;;;4.75;62.77;100258.84;5038725;28;20014;-86
2020/12/06 00:31:19;;;;;;;10.02;7.57;;;;;;;4.40;64.07;100266.22;5039576;28;20040;-87
2020/12/06 00:33:45;;;;;;;10.20;7.50;;;;;;;5.07;62.45;100259.56;5040148;28;20081;-85
2020/12/06 00:36:15;;;;;;;10.40;7.40;;;;;;;5.13;62.06;100265.59;5038742;28;20022;-86
2020/12/06 00:38:41;;;;;;;12.52;7.78;;;;;;;4.73;63.65;100260.72;5039585;28;20021;-87
2020/12/06 00:41:10;;;;;;;;;;;;;;;5.49;61.01;100250.94;5039001;28;20506;-88
2020/12/06 00:43:36;;;;;;;10.27;7.05;;;;;;;5.74;59.22;100244.69;5038433;28;19944;-86
2020/12/06 00:46:01;;;;;;;13.77;8.35;;;;;;;5.78;59.32;100247.19;5038837;28;20041;-87
2020/12/06 00:48:26;;;;;;;11.52;8.35;;;;;;;5.85;58.76;100247.81;5039926;28;20479;-86
2020/12/06 00:50:52;;;;;;;11.25;7.75;;;;;;;5.23;61.20;100249.19;5038356;28;20166;-88
2020/12/06 00:53:17;;;;;;;12.38;8.30;;;;;;;4.65;63.48;100249.34;5038389;28;20495;-86
2020/12/06 00:55:42;;;;;;;13.77;8.10;;;;;;;4.58;63.27;100246.00;5038127;28;20029;-85
2020/12/06 00:58:08;;;;;;;14.15;8.73;;;;;;;5.36;61.27;100241.56;5037908;28;20475;-86
2020/12/06 01:00:33;;;;;;;13.60;8.70;;;;;;;5.19;61.46;100240.34;5038243;28;20371;-86
2020/12/06 01:02:58;;;;;;;15.07;8.80;;;;;;;5.27;61.04;100240.13;5039751;28;20104;-86
2020/12/06 01:05:24;;;;;;;11.73;7.85;;;;;;;5.56;60.00;100240.88;5038691;28;20028;-85
2020/12/06 01:07:49;;;;;;;11.75;8.13;;;;;;;5.49;60.35;100245.56;5039222;28;20052;-85
2020/12/06 01:10:15;;;;;;;12.88;9.00;;;;;;;5.68;59.44;100246.63;5038899;28;20091;-85
2020/12/06 01:12:40;;;;;;;10.70;7.68;;;;;;;5.54;59.68;100251.66;5038588;28;20030;-85
2020/12/06 01:15:08;;;;;;;14.95;7.88;;;;;;;5.85;59.15;100253.19;5038372;28;20017;-87
2020/12/06 01:17:33;;;;;;;15.90;8.02;;;;;;;5.80;58.70;100257.88;5038087;28;20033;-88
2020/12/06 01:19:59;;;;;;;14.70;8.68;;;;;;;5.90;58.34;100253.00;5040469;28;20022;-86
2020/12/06 01:22:24;;;;;;;12.75;7.55;;;;;;;5.08;60.85;100253.28;5039672;28;20022;-86
2020/12/06 01:24:49;;;;;;;12.45;8.50;;;;;;;5.49;60.10;100253.63;5039924;28;20027;-87
2020/12/06 01:27:18;;;;;;;10.70;8.32;;;;;;;5.14;60.81;100253.94;5038722;28;20119;-85
2020/12/06 01:29:43;;;;;;;12.63;8.65;;;;;;;4.92;61.98;100251.13;5039160;28;20060;-85
2020/12/06 01:32:09;;;;;;;10.00;8.27;;;;;;;5.49;59.93;100241.06;5039719;28;20475;-87
2020/12/06 01:34:34;;;;;;;12.27;8.63;;;;;;;4.83;62.12;100245.19;5038455;28;20029;-86
2020/12/06 01:37:00;;;;;;;17.75;8.90;;;;;;;5.59;59.78;100238.06;5038141;28;20487;-88
2020/12/06 01:39:25;;;;;;;11.35;8.25;;;;;;;5.06;61.45;100242.59;5038937;28;20477;-88
2020/12/06 01:41:55;;;;;;;20.73;9.32;;;;;;;5.40;60.16;100243.22;5038516;28;20038;-87
2020/12/06 01:44:22;;;;;;;15.70;9.18;;;;;;;5.35;60.36;100231.78;5039514;28;20037;-87
2020/12/06 01:46:51;;;;;;;14.43;9.32;;;;;;;5.26;60.47;100235.66;5040230;28;20036;-87
2020/12/06 01:49:19;;;;;;;15.63;8.25;;;;;;;5.06;60.96;100234.56;5040705;28;20028;-85
2020/12/06 01:51:47;;;;;;;12.85;8.65;;;;;;;4.39;63.77;100251.06;5052339;28;20017;-85
2020/12/06 01:54:12;;;;;;;10.65;8.15;;;;;;;4.21;64.22;100261.44;5046414;28;20021;-85
2020/12/06 01:56:38;;;;;;;12.85;9.15;;;;;;;4.67;62.47;100251.06;5039455;28;20513;-87
2020/12/06 01:59:03;;;;;;;13.98;9.25;;;;;;;5.06;61.06;100252.47;5039503;28;20467;-86
2020/12/06 02:01:29;;;;;;;14.23;9.50;;;;;;;4.61;62.97;100257.50;5037814;28;20505;-86
2020/12/06 02:03:54;;;;;;;13.80;9.50;;;;;;;4.86;62.26;100251.34;5037715;28;20025;-86
2020/12/06 02:06:20;;;;;;;15.32;10.27;;;;;;;4.63;62.46;100246.72;5038065;28;20026;-87
2020/12/06 02:08:47;;;;;;;16.23;10.57;;;;;;;4.52;63.41;100257.78;5038043;28;20065;-86
2020/12/06 02:11:27;;;;;;;17.35;10.63;;;;;;;4.68;62.15;100257.28;5038279;28;20033;-86
2020/12/06 02:13:52;;;;;;;20.92;13.63;;;;;;;4.03;65.44;100278.94;5038174;28;20037;-86
2020/12/06 02:16:18;;;;;;;16.35;11.10;;;;;;;3.85;65.69;100279.47;5038619;28;20029;-86
2020/12/06 02:18:43;;;;;;;15.95;11.75;;;;;;;3.76;65.44;100285.97;5039065;28;20029;-85
2020/12/06 02:21:08;;;;;;;;;;;;;;;3.70;66.23;100292.38;5039308;28;20030;-85
2020/12/06 02:23:33;;;;;;;17.50;10.02;;;;;;;4.17;64.80;100291.91;5024610;28;19924;-88
2020/12/06 02:25:59;;;;;;;17.47;12.20;;;;;;;4.22;64.99;100284.59;5041356;28;20386;-85
2020/12/06 02:28:24;;;;;;;23.47;12.20;;;;;;;4.55;63.64;100284.47;5041463;28;20781;-85
2020/12/06 02:30:49;;;;;;;19.35;12.82;;;;;;;4.93;61.78;100284.16;5042235;28;20303;-86
2020/12/06 02:33:15;;;;;;;20.85;11.55;;;;;;;5.05;61.85;100296.28;5040920;28;20021;-85
2020/12/06 02:35:40;;;;;;;17.27;11.52;;;;;;;5.05;61.78;100296.28;5042804;28;20025;-86
2020/12/06 02:38:05;;;;;;;20.27;12.35;;;;;;;5.18;61.08;100294.94;5041083;28;20125;-86
2020/12/06 02:40:30;;;;;;;16.77;11.70;;;;;;;5.37;60.62;100296.97;5041715;28;20045;-86
2020/12/06 02:42:56;;;;;;;20.73;12.75;;;;;;;5.06;61.42;100287.31;5040399;28;20064;-88
2020/12/06 02:45:21;;;;;;;21.70;13.30;;;;;;;4.89;62.00;100293.22;5041639;28;20057;-87
2020/12/06 02:47:46;;;;;;;18.75;12.43;;;;;;;5.01;62.05;100286.56;5040881;28;20320;-85
2020/12/06 02:50:12;;;;;;;18.63;12.55;;;;;;;5.30;61.15;100283.78;5040467;28;20036;-87
2020/12/06 02:52:37;;;;;;;19.45;12.98;;;;;;;5.29;61.22;100271.28;5041251;28;20041;-85
2020/12/06 02:55:03;;;;;;;19.38;12.32;;;;;;;5.37;61.12;100270.16;5042130;28;20483;-86
2020/12/06 02:57:28;;;;;;;22.98;13.10;;;;;;;5.54;60.45;100265.06;5040484;28;20120;-85
2020/12/06 02:59:54;;;;;;;;;;;;;;;5.23;62.05;100267.97;5040918;28;20037;-85
2020/12/06 03:02:19;;;;;;;18.02;11.95;;;;;;;5.26;61.24;100271.41;5041551;28;19924;-86
2020/12/06 03:04:44;;;;;;;13.88;10.23;;;;;;;5.37;60.43;100256.75;5040424;28;20048;-85
2020/12/06 03:07:10;;;;;;;16.38;11.45;;;;;;;4.87;62.35;100263.78;5040530;28;20044;-86
2020/12/06 03:09:35;;;;;;;18.15;12.45;;;;;;;4.09;64.38;100267.16;5040254;28;20120;-86
2020/12/06 03:12:00;;;;;;;17.88;11.52;;;;;;;4.57;63.33;100266.53;5041188;28;20075;-87
2020/12/06 03:14:25;;;;;;;;;;;;;;;4.34;63.94;100274.44;5041944;28;20079;-86
2020/12/06 03:16:51;;;;;;;16.90;11.98;;;;;;;3.72;66.47;100268.25;5040551;28;19913;-84
2020/12/06 03:19:16;;;;;;;16.65;12.68;;;;;;;4.05;65.46;100268.19;5040220;28;20021;-86
2020/12/06 03:21:41;;;;;;;;;;;;;;;4.78;62.75;100267.66;5040716;28;20021;-86
2020/12/06 03:24:07;;;;;;;20.23;13.25;;;;;;;4.65;62.76;100273.47;5039816;28;19920;-85
2020/12/06 03:26:32;;;;;;;21.90;14.32;;;;;;;4.11;64.95;100272.47;5040776;28;20048;-85
2020/12/06 03:28:57;;;;;;;26.17;14.55;;;;;;;3.80;66.13;100286.75;5041763;28;20029;-87
2020/12/06 03:31:23;;;;;;;21.50;14.55;;;;;;;3.80;66.00;100282.28;5039955;28;20056;-85
2020/12/06 03:33:48;;;;;;;;;;;;;;;4.47;63.96;100277.59;5040306;28;20033;-85
2020/12/06 03:36:14;;;;;;;21.63;13.73;;;;;;;4.59;62.72;100286.16;5041135;28;19967;-85
2020/12/06 03:38:39;;;;;;;23.80;13.50;;;;;;;4.52;62.92;100294.44;5040106;28;20419;-85
2020/12/06 03:41:04;;;;;;;;;;;;;;;5.03;61.34;100277.56;5039837;28;20132;-87
2020/12/06 03:43:30;;;;;;;21.90;13.20;;;;;;;4.75;61.86;100270.44;5039383;28;19913;-86
2020/12/06 03:45:55;;;;;;;19.60;13.32;;;;;;;5.09;60.79;100274.66;5039841;28;20018;-85
2020/12/06 03:48:21;;;;;;;21.52;12.88;;;;;;;4.91;61.60;100276.16;5046303;28;20031;-82
2020/12/06 03:50:46;;;;;;;25.83;14.30;;;;;;;4.84;62.06;100266.56;5050148;28;20018;-84
2020/12/06 03:53:13;;;;;;;22.58;13.60;;;;;;;5.05;60.99;100264.09;5044200;28;20165;-85
2020/12/06 03:55:38;;;;;;;21.40;13.02;;;;;;;4.93;61.33;100271.63;5040548;28;20029;-86
2020/12/06 03:58:07;;;;;;;23.27;14.13;;;;;;;4.05;64.40;100274.41;5039706;28;20371;-85
2020/12/06 04:00:33;;;;;;;21.92;14.73;;;;;;;4.06;64.39;100272.59;5039999;28;20024;-85
2020/12/06 04:02:58;;;;;;;22.90;14.30;;;;;;;3.15;67.18;100276.03;5040730;28;20360;-86
2020/12/06 04:05:24;;;;;;;21.70;13.75;;;;;;;4.08;64.58;100270.78;5039648;28;20048;-86
2020/12/06 04:07:49;;;;;;;;;;;;;;;3.74;65.51;100269.06;5039746;28;20025;-85
2020/12/06 04:10:16;;;;;;;24.92;15.13;;;;;;;3.57;66.30;100269.56;5041336;28;19920;-85
2020/12/06 04:12:42;;;;;;;22.80;15.15;;;;;;;3.85;65.02;100276.78;5039145;28;20025;-84
2020/12/06 04:15:07;;;;;;;23.10;15.05;;;;;;;4.19;64.26;100270.44;5039336;28;20388;-85
2020/12/06 04:17:32;;;;;;;24.35;15.63;;;;;;;3.89;65.04;100265.06;5039453;28;20379;-86
2020/12/06 04:19:58;;;;;;;23.23;15.48;;;;;;;4.09;64.18;100269.81;5039035;28;20028;-84
2020/12/06 04:22:23;;;;;;;24.73;15.57;;;;;;;4.08;64.71;100268.97;5039169;28;20033;-85
2020/12/06 04:24:48;;;;;;;23.92;15.43;;;;;;;4.07;64.99;100272.53;5038637;28;20026;-84
2020/12/06 04:27:14;;;;;;;29.60;15.82;;;;;;;4.48;63.29;100271.34;5038298;28;20029;-86
2020/12/06 04:29:39;;;;;;;;;;;;;;;3.89;65.27;100276.69;5022623;28;20498;-86
2020/12/06 04:32:04;;;;;;;29.73;18.08;;;;;;;3.28;67.05;100281.94;5038900;28;19928;-86
2020/12/06 04:34:30;;;;;;;;;;;;;;;3.94;65.57;100283.66;5040788;28;20025;-86
2020/12/06 04:36:55;;;;;;;23.70;14.93;;;;;;;4.24;63.97;100280.09;5038913;28;19913;-87
2020/12/06 04:39:20;;;;;;;22.67;14.07;;;;;;;4.13;63.69;100282.19;5038898;28;20033;-85
2020/12/06 04:41:45;;;;;;;;;;;;;;;4.37;63.65;100287.75;5038828;28;20046;-84
2020/12/06 04:44:11;;;;;;;26.63;15.93;;;;;;;4.24;63.18;100290.81;5039117;28;19964;-86
2020/12/06 04:46:38;;;;;;;24.88;15.27;;;;;;;4.26;63.79;100296.97;5038773;28;20022;-88
2020/12/06 04:49:06;;;;;;;23.27;15.05;;;;;;;4.34;63.31;100291.38;5038751;28;20075;-84
2020/12/06 04:51:43;;;;;;;23.33;14.93;;;;;;;4.61;62.47;100292.31;5038431;28;20437;-87
2020/12/06 04:54:09;;;;;;;22.88;13.57;;;;;;;4.76;61.48;100290.94;5039026;28;20083;-85
2020/12/06 04:56:36;;;;;;;;;;;;;;;4.71;61.31;100289.34;5038967;28;20028;-85
2020/12/06 04:59:02;;;;;;;;;;;;;;;4.49;61.55;100290.03;5038606;28;20358;-85
2020/12/06 05:01:33;;;;;;;20.77;13.67;;;;;;;4.45;61.50;100288.38;5038268;28;20277;-85
2020/12/06 05:04:14;;;;;;;20.40;12.90;;;;;;;4.73;60.41;100287.50;5038353;28;20052;-85
2020/12/06 05:06:42;;;;;;;22.27;13.48;;;;;;;4.43;61.76;100285.72;5038135;28;20476;-86
2020/12/06 05:09:09;;;;;;;23.35;14.27;;;;;;;4.45;61.36;100296.41;5039190;28;20037;-84
2020/12/06 05:11:36;;;;;;;24.35;13.98;;;;;;;4.49;61.50;100295.38;5037729;28;20028;-85
2020/12/06 05:14:01;;;;;;;24.25;13.90;;;;;;;4.49;61.54;100295.38;5038229;28;20026;-85
2020/12/06 05:16:29;;;;;;;20.95;12.80;;;;;;;4.38;61.99;100292.19;5038000;28;20048;-84
2020/12/06 05:18:54;;;;;;;22.50;13.32;;;;;;;4.42;61.53;100299.19;5038662;28;20036;-85
2020/12/06 05:21:33;;;;;;;22.65;13.82;;;;;;;4.27;62.03;100292.50;5038183;28;20029;-85
2020/12/06 05:23:59;;;;;;;20.40;13.80;;;;;;;4.36;61.77;100291.34;5038125;28;20032;-87
2020/12/06 05:26:25;;;;;;;19.60;12.95;;;;;;;4.20;63.03;100288.25;5038121;28;20021;-85
2020/12/06 05:28:51;;;;;;;23.05;14.60;;;;;;;3.82;64.06;100299.19;5039484;28;20029;-84
2020/12/06 05:31:16;;;;;;;22.77;14.50;;;;;;;3.73;64.04;100294.09;5039252;28;20029;-85
2020/12/06 05:33:43;;;;;;;21.27;13.93;;;;;;;4.03;63.66;100296.78;5039608;28;20018;-84
2020/12/06 05:36:10;;;;;;;29.17;15.77;;;;;;;3.66;64.91;100298.72;5038735;28;20079;-87
2020/12/06 05:38:36;;;;;;;29.40;15.57;;;;;;;3.93;64.01;100298.00;5038597;28;20073;-85
2020/12/06 05:41:06;;;;;;;25.00;16.02;;;;;;;4.20;63.37;100291.81;5038521;28;20561;-85
2020/12/06 05:43:32;;;;;;;24.42;15.15;;;;;;;4.34;62.72;100301.22;5040861;28;20045;-85
2020/12/06 05:46:10;;;;;;;26.15;14.30;;;;;;;4.20;63.31;100299.84;5042096;28;20463;-85
2020/12/06 05:48:36;;;;;;;23.90;15.15;;;;;;;4.23;63.51;100296.22;5044822;28;20017;-83
2020/12/06 05:51:03;;;;;;;26.80;15.48;;;;;;;4.29;62.92;100301.38;5047881;28;20036;-85
2020/12/06 05:53:29;;;;;;;25.85;15.32;;;;;;;4.47;62.69;100302.59;5042905;28;20030;-85
2020/12/06 05:56:16;;;;;;;23.50;15.13;;;;;;;4.43;62.61;100306.28;5040043;28;20105;-86
2020/12/06 05:58:43;;;;;;;24.13;14.40;;;;;;;4.47;61.98;100304.38;5041283;28;20038;-85
2020/12/06 06:01:13;;;;;;;20.73;13.77;;;;;;;4.49;61.90;100306.09;5041182;28;20433;-86
2020/12/06 06:03:52;;;;;;;22.77;14.85;;;;;;;4.54;61.25;100312.19;5041666;28;20029;-85
2020/12/06 06:06:45;;;;;;;24.88;13.48;;;;;;;4.66;60.68;100307.38;5042949;28;20071;-85
2020/12/06 06:09:12;;;;;;;21.30;14.18;;;;;;;4.61;60.94;100311.06;5040787;28;20049;-87
2020/12/06 06:11:39;;;;;;;22.15;14.18;;;;;;;4.78;60.45;100313.19;5040902;28;20024;-85
2020/12/06 06:14:11;;;;;;;25.63;14.60;;;;;;;4.67;60.92;100312.69;5041170;28;20025;-85
2020/12/06 06:16:37;;;;;;;22.10;14.18;;;;;;;4.47;61.48;100307.97;5041468;28;20024;-85
2020/12/06 06:19:05;;;;;;;22.27;14.65;;;;;;;4.45;62.61;100304.44;5042114;28;20038;-84
2020/12/06 06:21:37;;;;;;;24.25;14.18;;;;;;;4.51;61.67;100296.22;5041979;28;20030;-86
2020/12/06 06:24:08;;;;;;;26.05;15.38;;;;;;;4.50;62.19;100297.16;5041235;28;20040;-84
2020/12/06 06:26:39;;;;;;;24.33;15.50;;;;;;;4.53;62.54;100291.69;5040952;28;20433;-86
2020/12/06 06:29:15;;;;;;;27.75;15.63;;;;;;;4.46;62.83;100289.25;5041326;28;20042;-86
2020/12/06 06:31:43;;;;;;;33.85;16.42;;;;;;;4.00;65.11;100292.41;5041073;28;20041;-85
2020/12/06 06:34:09;;;;;;;32.05;16.05;;;;;;;4.11;63.77;100296.53;5040728;28;20021;-85
2020/12/06 06:36:35;;;;;;;27.33;15.40;;;;;;;4.33;63.76;100294.09;5041278;28;20028;-84
2020/12/06 06:39:02;;;;;;;24.63;16.20;;;;;;;4.05;63.61;100301.16;5037372;28;20029;-86
2020/12/06 06:41:28;;;;;;;29.25;16.98;;;;;;;4.33;63.73;100299.47;5036339;28;20049;-85
2020/12/06 06:44:02;;;;;;;29.42;17.48;;;;;;;4.30;63.35;100288.84;5037022;28;20455;-85
2020/12/06 06:46:33;;;;;;;28.77;18.60;;;;;;;3.35;66.85;100299.56;5035287;28;20112;-85
2020/12/06 06:49:07;;;;;;;28.55;17.98;;;;;;;3.22;67.14;100297.28;5035508;28;20025;-85
2020/12/06 06:51:33;;;;;;;33.00;20.40;;;;;;;3.47;66.77;100302.81;5035435;28;20033;-84
2020/12/06 06:54:05;;;;;;;38.08;21.00;;;;;;;3.08;68.98;100298.50;5036527;28;20159;-86
2020/12/06 06:56:36;;;;;;;35.80;22.15;;;;;;;3.49;67.05;100299.19;5035725;28;20072;-85
2020/12/06 06:59:03;;;;;;;36.83;22.73;;;;;;;3.75;66.24;100305.63;5036251;28;20455;-85
2020/12/06 07:01:29;;;;;;;29.50;19.75;;;;;;;3.73;66.73;100300.31;5035063;28;20028;-86
2020/12/06 07:04:18;;;;;;;32.65;19.90;;;;;;;3.65;67.21;100302.31;5035226;28;20035;-86
2020/12/06 07:06:45;;;;;;;37.47;19.77;;;;;;;4.00;65.10;100302.22;5034765;28;20040;-86
2020/12/06 07:09:11;;;;;;;30.08;19.77;;;;;;;3.99;65.03;100303.16;5036010;28;20033;-86
2020/12/06 07:11:38;;;;;;;36.05;21.40;;;;;;;3.05;68.89;100308.38;5034764;28;20035;-85
2020/12/06 07:14:03;;;;;;;33.10;20.58;;;;;;;3.63;66.81;100306.84;5035937;28;20431;-85
2020/12/06 07:16:31;;;;;;;33.63;20.88;;;;;;;3.77;66.14;100306.44;5034258;28;20064;-85
2020/12/06 07:18:58;;;;;;;33.95;20.95;;;;;;;3.85;66.80;100306.22;5034410;28;20025;-83
2020/12/06 07:21:30;;;;;;;40.63;21.45;;;;;;;3.67;67.71;100305.84;5034581;28;20044;-86
2020/12/06 07:23:56;;;;;;;31.63;21.15;;;;;;;3.98;66.09;100314.78;5035750;28;20079;-85
2020/12/06 07:26:22;;;;;;;33.95;21.92;;;;;;;4.25;64.51;100310.41;5035904;28;20096;-86
2020/12/06 07:28:47;;;;;;;43.60;27.27;;;;;;;4.58;63.98;100308.50;5034643;28;20386;-87
2020/12/06 07:31:15;;;;;;;47.30;31.88;;;;;;;4.83;63.38;100310.41;5035672;28;20112;-85
2020/12/06 07:33:40;;;;;;;55.75;42.63;;;;;;;4.70;63.56;100314.41;5035291;28;20013;-86
2020/12/06 07:36:05;;;;;;;35.65;23.52;;;;;;;4.85;62.44;100313.91;5035979;28;20026;-84
2020/12/06 07:38:35;;;;;;;37.22;21.95;;;;;;;4.05;65.91;100301.16;5035442;28;20076;-85
2020/12/06 07:41:02;;;;;;;33.38;22.70;;;;;;;4.92;63.33;100296.69;5034673;28;20050;-85
2020/12/06 07:43:28;;;;;;;34.08;24.05;;;;;;;5.22;62.17;100301.94;5035185;28;20120;-85
2020/12/06 07:45:53;;;;;;;35.85;23.13;;;;;;;5.26;62.13;100303.59;5043557;28;20060;-85
2020/12/06 07:48:20;;;;;;;31.52;20.92;;;;;;;5.11;62.33;100299.63;5049318;28;20478;-85
2020/12/06 07:50:45;;;;;;;35.15;23.00;;;;;;;5.17;61.84;100305.72;5040425;28;20117;-85
2020/12/06 07:53:10;;;;;;;34.30;23.65;;;;;;;4.92;63.29;100306.53;5033769;28;20061;-87
2020/12/06 07:55:35;;;;;;;35.40;24.02;;;;;;;5.21;61.82;100313.59;5033987;28;20496;-85
2020/12/06 07:58:10;;;;;;;32.97;21.05;;;;;;;5.61;60.70;100305.97;5034292;28;20026;-85
2020/12/06 08:00:39;;;;;;;31.38;19.90;;;;;;;5.50;61.14;100304.53;5034246;28;20471;-86
2020/12/06 08:03:06;;;;;;;32.53;18.77;;;;;;;5.40;61.14;100310.28;5034038;28;20022;-87
2020/12/06 08:05:40;;;;;;;27.02;18.85;;;;;;;5.46;61.23;100307.38;5033801;28;20033;-87
2020/12/06 08:08:12;;;;;;;29.92;18.38;;;;;;;5.43;61.08;100305.66;5033782;28;20061;-86
2020/12/06 08:10:39;;;;;;;28.17;18.63;;;;;;;5.39;61.23;100298.69;5034574;28;20125;-87
2020/12/06 08:13:10;;;;;;;29.98;18.35;;;;;;;5.66;60.81;100301.28;5034673;28;20060;-87
2020/12/06 08:15:36;;;;;;;26.25;17.65;;;;;;;5.79;60.29;100294.53;5038838;28;20116;-86
2020/12/06 08:18:11;;;;;;;29.90;18.15;;;;;;;5.74;60.25;100290.31;5053254;28;20033;-86
2020/12/06 08:20:36;;;;;;;27.40;16.27;;;;;;;6.01;59.96;100289.31;5050942;28;20409;-85
2020/12/06 08:23:01;;;;;;;26.27;16.83;;;;;;;5.97;60.31;100294.84;5034453;28;20534;-83
2020/12/06 08:25:32;;;;;;;30.65;17.55;;;;;;;6.11;60.22;100288.94;5035365;28;20288;-83
2020/12/06 08:28:02;;;;;;;25.83;17.20;;;;;;;5.75;60.37;100289.34;5036443;28;20029;-81
2020/12/06 08:30:30;;;;;;;28.15;18.55;;;;;;;5.99;60.10;100299.25;5037016;28;20033;-82
2020/12/06 08:32:59;;;;;;;29.95;17.40;;;;;;;6.17;59.35;100299.44;5036163;28;20127;-84
2020/12/06 08:36:05;;;;;;;25.48;16.85;;;;;;;6.06;59.81;100302.56;5035731;28;20470;-90
2020/12/06 08:43:08;;;;;;;25.55;16.33;;;;;;;6.15;59.43;100306.69;4972706;28;21292;-86
2020/12/06 11:17:42;;;;;;;30.58;19.23;;;;;;;8.32;57.80;100230.13;5089627;28;20744;-82
2020/12/06 11:20:07;;;;;;;28.73;18.70;;;;;;;8.53;56.81;100230.06;5061762;28;20059;-83
2020/12/06 11:22:33;;;;;;;29.52;19.45;;;;;;;8.72;56.42;100235.41;5080896;28;20443;-85
2020/12/06 11:24:59;;;;;;;29.17;19.95;;;;;;;7.87;58.75;100246.63;5100173;28;20097;-82
2020/12/06 11:27:25;;;;;;;25.05;16.52;;;;;;;7.18;60.73;100261.34;5085672;28;20058;-84
2020/12/06 11:29:53;;;;;;;29.95;18.05;;;;;;;7.16;62.00;100260.56;5084659;28;20032;-86
2020/12/06 11:32:25;;;;;;;27.88;17.98;;;;;;;6.15;64.28;100275.34;5083443;28;20028;-90
2020/12/06 11:34:54;;;;;;;29.52;19.17;;;;;;;7.16;61.42;100277.56;5083138;28;20396;-88
2020/12/06 11:37:19;;;;;;;28.15;18.70;;;;;;;6.88;62.63;100267.06;5100038;28;20044;-86
2020/12/06 11:39:47;;;;;;;29.98;19.70;;;;;;;6.68;62.84;100276.84;5069934;28;20186;-86
2020/12/06 11:42:13;;;;;;;35.22;19.83;;;;;;;7.15;61.02;100274.94;5064388;28;20040;-87
2020/12/06 11:44:38;;;;;;;39.38;28.13;;;;;;;6.29;63.66;100274.78;5064520;28;20040;-87
2020/12/06 11:47:04;;;;;;;28.65;18.00;;;;;;;7.33;61.20;100271.44;5084101;28;20029;-87
2020/12/06 11:49:30;;;;;;;29.58;19.10;;;;;;;7.49;60.75;100268.97;5082947;28;20028;-83
2020/12/06 11:51:56;;;;;;;28.08;18.25;;;;;;;6.77;62.87;100275.59;5080464;28;20122;-88
2020/12/06 11:54:21;;;;;;;26.63;17.38;;;;;;;6.89;62.78;100279.59;5077503;28;20063;-86
2020/12/06 11:56:50;;;;;;;31.23;20.38;;;;;;;7.51;60.42;100274.28;5082711;28;20593;-85
2020/12/06 11:59:17;;;;;;;33.58;19.98;;;;;;;7.77;59.19;100279.34;5081953;28;20546;-86
2020/12/06 12:01:43;;;;;;;32.53;18.83;;;;;;;7.93;59.06;100287.63;5082238;28;20122;-88
2020/12/06 12:04:08;;;;;;;28.98;17.98;;;;;;;7.50;60.85;100292.22;5082592;28;20042;-88
2020/12/06 12:06:34;;;;;;;27.15;18.20;;;;;;;7.07;60.92;100292.25;5082001;28;20443;-87
2020/12/06 12:08:59;;;;;;;28.02;18.38;;;;;;;7.75;59.87;100302.78;5094892;28;20032;-85
2020/12/06 12:11:25;;;;;;;30.55;19.05;;;;;;;7.71;59.90;100303.00;5076337;28;20028;-88
2020/12/06 12:13:51;;;;;;;28.80;18.90;;;;;;;7.77;59.28;100317.03;5076274;28;20415;-87
2020/12/06 12:16:16;;;;;;;31.17;19.00;;;;;;;7.98;58.52;100306.25;5094163;28;20085;-84
2020/12/06 12:18:42;;;;;;;29.88;18.88;;;;;;;7.23;61.29;100295.19;5075015;28;20653;-88
2020/12/06 12:21:07;;;;;;;33.63;20.20;;;;;;;8.08;58.62;100272.56;5076010;28;20393;-83
2020/12/06 12:23:32;;;;;;;30.05;19.85;;;;;;;8.19;58.18;100276.59;5075563;28;20504;-85
2020/12/06 12:25:58;;;;;;;30.75;19.33;;;;;;;7.38;59.80;100272.13;5075495;28;20370;-84
2020/12/06 12:28:23;;;;;;;28.80;19.13;;;;;;;8.03;58.86;100263.84;5092876;28;20036;-85
2020/12/06 12:30:48;;;;;;;33.25;19.23;;;;;;;8.58;57.00;100259.50;5074991;28;20032;-85
2020/12/06 12:33:14;;;;;;;28.40;18.73;;;;;;;8.56;57.17;100258.69;5074597;28;20043;-85
2020/12/06 12:35:39;;;;;;;30.08;19.60;;;;;;;8.58;57.70;100251.41;5073727;28;20365;-85
2020/12/06 12:38:04;;;;;;;26.73;17.93;;;;;;;8.66;57.14;100246.50;5073497;28;20067;-85
2020/12/06 12:40:30;;;;;;;31.40;19.30;;;;;;;8.14;58.70;100255.25;5092018;28;20613;-85
2020/12/06 12:42:55;;;;;;;31.67;19.42;;;;;;;8.47;57.14;100251.91;5074146;28;20028;-85
2020/12/06 12:45:20;;;;;;;27.67;19.00;;;;;;;8.48;57.40;100259.94;5074140;28;20127;-85
2020/12/06 12:47:45;;;;;;;32.17;18.70;;;;;;;8.46;57.62;100248.34;5091634;28;20289;-85
2020/12/06 12:50:11;;;;;;;28.55;18.17;;;;;;;8.40;57.91;100251.31;5074620;28;20739;-86
2020/12/06 12:52:36;;;;;;;31.00;19.57;;;;;;;8.55;57.58;100249.72;5074869;28;20497;-84
2020/12/06 12:55:02;;;;;;;28.30;18.27;;;;;;;8.35;58.81;100245.28;5074901;28;20274;-85
2020/12/06 12:57:27;;;;;;;26.55;17.10;;;;;;;8.27;59.25;100247.44;5092755;28;20315;-85
2020/12/06 12:59:52;;;;;;;26.80;17.92;;;;;;;8.58;58.24;100246.00;5092717;28;20036;-84
2020/12/06 13:02:18;;;;;;;28.97;18.83;;;;;;;8.54;58.37;100245.28;5092800;28;20029;-85
2020/12/06 13:04:43;;;;;;;34.83;20.90;;;;;;;8.52;58.80;100239.97;5074089;28;20370;-84
2020/12/06 13:07:08;;;;;;;33.93;22.77;;;;;;;8.66;58.01;100236.56;5074698;28;20320;-84
2020/12/06 13:09:34;;;;;;;34.33;23.87;;;;;;;8.80;57.97;100230.53;5092802;28;20631;-84
2020/12/06 13:11:59;;;;;;;36.65;23.42;;;;;;;8.61;58.10;100227.00;5074588;28;20086;-84
2020/12/06 13:14:25;;;;;;;33.33;21.25;;;;;;;8.41;59.13;100227.91;5092617;28;20028;-84
2020/12/06 13:16:51;;;;;;;40.38;26.67;;;;;;;8.55;58.68;100230.84;5092946;28;20056;-85
2020/12/06 13:19:16;;;;;;;38.00;22.45;;;;;;;8.42;58.50;100238.63;5074386;28;20110;-84
2020/12/06 13:21:41;;;;;;;43.80;28.60;;;;;;;8.62;58.25;100237.69;5074189;28;20036;-84
2020/12/06 13:24:07;;;;;;;37.80;23.58;;;;;;;8.57;58.91;100236.16;5092625;28;20063;-84
2020/12/06 13:26:32;;;;;;;32.97;20.42;;;;;;;8.68;57.93;100239.19;5074530;28;20036;-84
2020/12/06 13:28:57;;;;;;;31.23;19.67;;;;;;;8.56;58.83;100229.91;5057614;28;20048;-83
2020/12/06 13:31:23;;;;;;;34.63;21.70;;;;;;;8.21;59.29;100234.28;5074384;28;20035;-84
2020/12/06 13:33:49;;;;;;;31.75;19.90;;;;;;;8.58;58.51;100229.84;5092289;28;20028;-84
2020/12/06 13:36:16;;;;;;;32.95;19.60;;;;;;;8.79;58.23;100236.84;5074194;28;20034;-84
2020/12/06 13:38:41;;;;;;;34.92;20.55;;;;;;;8.88;57.89;100235.53;5092371;28;20085;-84
2020/12/06 13:41:06;;;;;;;29.65;20.27;;;;;;;8.95;57.68;100242.38;5074196;28;20032;-85
2020/12/06 13:43:32;;;;;;;29.15;19.38;;;;;;;8.96;57.39;100236.00;5074289;28;20040;-84
2020/12/06 13:45:57;;;;;;;33.38;20.42;;;;;;;8.22;59.29;100250.38;5073965;28;20067;-84
2020/12/06 13:48:24;;;;;;;33.05;21.00;;;;;;;8.32;60.02;100240.91;5073963;28;20497;-84
2020/12/06 13:50:49;;;;;;;34.45;20.35;;;;;;;8.72;58.53;100243.50;5073858;28;20051;-85
2020/12/06 13:53:14;;;;;;;31.80;20.20;;;;;;;8.92;57.78;100252.41;5092293;28;20051;-84
2020/12/06 13:55:40;;;;;;;55.85;30.25;;;;;;;8.78;58.05;100245.03;5092027;28;20036;-84
2020/12/06 13:58:05;;;;;;;46.05;26.85;;;;;;;8.95;57.68;100245.06;5074020;28;20389;-84